createdAt,value
2023-05-03T00:00:17.879Z,98.34
2023-05-03T00:02:45.174Z,98.12
2023-05-03T00:05:13.277Z,97.43
2023-05-03T00:07:41.818Z,97.52
2023-05-03T00:10:10.651Z,97.34
2023-05-03T00:12:39.744Z,97.35
2023-05-03T00:15:07.433Z,97.26
2023-05-03T00:17:34.387Z,96.61
2023-05-03T00:20:02.087Z,95.58
2023-05-03T00:22:29.030Z,96.73
2023-05-03T00:24:56.709Z,95.89
2023-05-03T00:27:24.665Z,95.34
2023-05-03T00:29:54.872Z,95.63
2023-05-03T00:32:24.965Z,95.93
2023-05-03T00:34:58.144Z,96.67
2023-05-03T00:37:25.491Z,96.34
2023-05-03T00:39:52.839Z,97.78
2023-05-03T00:42:19.973Z,97.31
2023-05-03T00:44:46.749Z,96.13
2023-05-03T00:47:13.546Z,97.36
2023-05-03T00:49:41.727Z,98.26
2023-05-03T00:52:09.513Z,97.83
2023-05-03T00:54:36.504Z,95.48
2023-05-03T00:57:05.019Z,96.01
2023-05-03T00:59:33.035Z,96.52
2023-05-03T01:02:00.043Z,96.92
2023-05-03T01:04:27.244Z,96.62
2023-05-03T01:07:11.058Z,97.07
2023-05-03T01:09:52.320Z,96.87
2023-05-03T01:13:04.023Z,97.33
2023-05-03T01:15:50.589Z,97.00
2023-05-03T01:18:29.425Z,96.36
2023-05-03T01:20:57.807Z,97.70
2023-05-03T01:24:23.155Z,97.18
2023-05-03T01:26:49.930Z,96.33
2023-05-03T01:29:16.785Z,97.14
2023-05-03T01:31:57.524Z,97.57
2023-05-03T01:34:51.350Z,98.21
2023-05-03T01:37:18.706Z,99.20
2023-05-03T01:39:55.482Z,97.78
2023-05-03T01:42:24.622Z,97.25
2023-05-03T01:44:52.038Z,97.16
2023-05-03T01:47:18.811Z,97.79
2023-05-03T01:49:45.570Z,97.89
2023-05-03T01:52:12.312Z,97.76
2023-05-03T01:54:38.996Z,97.88
2023-05-03T01:57:05.676Z,98.26
2023-05-03T01:59:32.376Z,98.60
2023-05-03T02:01:59.083Z,97.20
2023-05-03T02:04:25.834Z,97.63
2023-05-03T02:06:52.668Z,98.73
2023-05-03T02:09:19.390Z,97.21
2023-05-03T02:11:46.197Z,98.40
2023-05-03T02:14:12.914Z,98.76
2023-05-03T02:16:40.288Z,98.33
2023-05-03T02:19:08.228Z,97.55
2023-05-03T02:21:36.953Z,98.78
2023-05-03T02:24:04.071Z,99.71
2023-05-03T02:26:30.852Z,98.36
2023-05-03T02:28:58.386Z,99.13
2023-05-03T02:31:25.592Z,98.72
2023-05-03T02:33:52.482Z,100.00
2023-05-03T02:36:19.356Z,100.00
2023-05-03T02:38:46.070Z,100.00
2023-05-03T02:41:12.780Z,100.00
2023-05-03T02:43:39.446Z,99.21
2023-05-03T02:46:06.260Z,99.19
2023-05-03T02:48:33.016Z,98.77
2023-05-03T02:50:59.715Z,98.19
2023-05-03T02:53:26.618Z,99.17
2023-05-03T02:55:53.318Z,99.87
2023-05-03T02:58:20.061Z,100.00
2023-05-03T03:00:46.856Z,99.53
2023-05-03T03:03:13.674Z,99.90
2023-05-03T03:05:40.402Z,100.00
2023-05-03T03:08:07.596Z,100.00
2023-05-03T03:10:34.380Z,100.00
2023-05-03T03:13:01.104Z,100.00
2023-05-03T03:15:27.977Z,100.00
2023-05-03T03:17:58.059Z,100.00
2023-05-03T03:20:24.839Z,100.00
2023-05-03T03:22:51.765Z,100.00
2023-05-03T03:25:18.600Z,100.00
2023-05-03T03:27:45.308Z,100.00
2023-05-03T03:30:12.196Z,99.90
2023-05-03T03:32:39.022Z,99.18
2023-05-03T03:35:06.072Z,100.00
2023-05-03T03:37:32.838Z,100.00
2023-05-03T03:39:59.537Z,100.00
2023-05-03T03:42:26.369Z,100.00
2023-05-03T03:44:53.096Z,100.00
2023-05-03T03:47:19.979Z,100.00
2023-05-03T03:49:46.929Z,100.00
2023-05-03T03:52:13.652Z,99.94
2023-05-03T03:54:40.788Z,100.00
2023-05-03T03:57:07.526Z,100.00
2023-05-03T03:59:34.213Z,100.00
2023-05-03T04:02:01.001Z,99.60
2023-05-03T04:04:28.407Z,99.52
2023-05-03T04:06:55.115Z,100.00
2023-05-03T04:09:22.010Z,100.00
2023-05-03T04:11:49.312Z,100.00
2023-05-03T04:14:16.053Z,100.00
2023-05-03T04:16:42.767Z,100.00
2023-05-03T04:19:09.556Z,100.00
2023-05-03T04:21:36.225Z,100.00
2023-05-03T04:24:06.062Z,100.00
2023-05-03T04:26:33.718Z,100.00
2023-05-03T04:29:00.505Z,100.00
2023-05-03T04:31:27.310Z,100.00
2023-05-03T04:33:54.062Z,100.00
2023-05-03T04:36:25.723Z,100.00
2023-05-03T04:38:52.832Z,100.00
2023-05-03T04:41:19.536Z,100.00
2023-05-03T04:43:46.345Z,100.00
2023-05-03T04:46:13.236Z,100.00
2023-05-03T04:48:40.104Z,100.00
2023-05-03T04:51:06.849Z,100.00
2023-05-03T04:53:33.567Z,100.00
2023-05-03T04:56:00.362Z,100.00
2023-05-03T04:58:27.069Z,100.00
2023-05-03T05:00:54.448Z,100.00
2023-05-03T05:03:21.220Z,100.00
2023-05-03T05:05:48.082Z,100.00
2023-05-03T05:08:14.811Z,100.00
2023-05-03T05:10:42.420Z,100.00
2023-05-03T05:13:09.226Z,100.00
2023-05-03T05:15:36.078Z,100.00
2023-05-03T05:18:02.922Z,100.00
2023-05-03T05:20:29.736Z,100.00
2023-05-03T05:22:56.533Z,100.00
2023-05-03T05:25:23.304Z,100.00
2023-05-03T05:27:50.019Z,100.00
2023-05-03T05:30:16.836Z,100.00
2023-05-03T05:32:43.697Z,100.00
2023-05-03T05:35:10.601Z,99.92
2023-05-03T05:37:37.322Z,99.82
2023-05-03T05:40:05.103Z,100.00
2023-05-03T05:42:32.474Z,99.92
2023-05-03T05:44:59.274Z,100.00
2023-05-03T05:47:26.366Z,100.00
2023-05-03T05:49:53.422Z,99.96
2023-05-03T05:52:20.136Z,99.97
2023-05-03T05:54:46.994Z,99.75
2023-05-03T05:57:14.251Z,99.56
2023-05-03T05:59:41.320Z,98.81
2023-05-03T06:02:14.878Z,97.95
2023-05-03T06:04:44.473Z,96.97
2023-05-03T06:07:11.291Z,95.67
2023-05-03T06:09:38.116Z,97.25
2023-05-03T06:12:05.005Z,96.27
2023-05-03T06:14:31.686Z,95.40
2023-05-03T06:17:00.212Z,96.41
2023-05-03T06:19:26.970Z,95.31
2023-05-03T06:21:53.725Z,95.56
2023-05-03T06:24:21.633Z,91.75
2023-05-03T06:26:51.525Z,92.58
2023-05-03T06:29:18.519Z,91.32
2023-05-03T06:31:45.571Z,92.88
2023-05-03T06:34:12.272Z,91.34
2023-05-03T06:36:38.971Z,89.99
2023-05-03T06:39:06.121Z,89.29
2023-05-03T06:41:35.810Z,87.22
2023-05-03T06:44:02.548Z,90.06
2023-05-03T06:46:29.339Z,86.13
2023-05-03T06:48:56.724Z,87.42
2023-05-03T06:51:28.333Z,83.37
2023-05-03T06:53:56.592Z,85.42
2023-05-03T06:56:23.928Z,85.14
2023-05-03T06:58:50.921Z,83.65
2023-05-03T07:01:19.332Z,81.10
2023-05-03T07:03:46.505Z,81.83
2023-05-03T07:06:13.445Z,81.47
2023-05-03T07:08:40.196Z,79.85
2023-05-03T07:11:06.919Z,76.44
2023-05-03T07:13:33.598Z,78.72
2023-05-03T07:16:03.374Z,78.28
2023-05-03T07:18:30.814Z,78.46
2023-05-03T07:20:57.577Z,77.93
2023-05-03T07:23:24.338Z,77.23
2023-05-03T07:25:51.042Z,75.00
2023-05-03T07:28:17.756Z,76.33
2023-05-03T07:30:44.506Z,75.54
2023-05-03T07:33:11.706Z,75.18
2023-05-03T07:35:38.578Z,74.90
2023-05-03T07:38:05.272Z,73.65
2023-05-03T07:40:33.515Z,70.81
2023-05-03T07:43:00.814Z,74.23
2023-05-03T07:45:27.682Z,70.35
2023-05-03T07:47:55.627Z,67.95
2023-05-03T07:50:22.923Z,69.05
2023-05-03T07:52:52.663Z,69.43
2023-05-03T07:55:20.763Z,70.18
2023-05-03T07:57:47.846Z,67.00
2023-05-03T08:00:15.213Z,66.55
2023-05-03T08:02:42.185Z,65.78
2023-05-03T08:05:11.429Z,67.25
2023-05-03T08:07:38.553Z,64.86
2023-05-03T08:10:06.160Z,65.94
2023-05-03T08:12:33.038Z,65.17
2023-05-03T08:14:59.779Z,65.27
2023-05-03T08:17:26.652Z,66.29
2023-05-03T08:19:59.026Z,65.94
2023-05-03T08:22:27.140Z,63.55
2023-05-03T08:24:56.727Z,65.20
2023-05-03T08:27:25.101Z,64.64
2023-05-03T08:29:52.237Z,66.86
2023-05-03T08:32:19.918Z,64.70
2023-05-03T08:34:46.645Z,64.77
2023-05-03T08:37:13.458Z,64.78
2023-05-03T08:39:40.384Z,64.41
2023-05-03T08:42:08.427Z,64.21
2023-05-03T08:44:39.841Z,63.16
2023-05-03T08:47:07.797Z,61.73
2023-05-03T08:49:35.633Z,65.17
2023-05-03T08:52:03.101Z,64.07
2023-05-03T08:54:29.868Z,61.13
2023-05-03T08:56:56.561Z,62.84
2023-05-03T08:59:23.292Z,62.85
2023-05-03T09:01:50.050Z,63.56
2023-05-03T09:04:17.729Z,63.16
2023-05-03T09:06:44.725Z,62.72
2023-05-03T09:09:12.036Z,61.38
2023-05-03T09:11:39.988Z,61.89
2023-05-03T09:14:17.098Z,61.61
2023-05-03T09:16:45.516Z,60.21
2023-05-03T09:19:13.499Z,62.14
2023-05-03T09:21:41.676Z,60.49
2023-05-03T09:24:19.379Z,61.86
2023-05-03T09:26:47.671Z,58.96
2023-05-03T09:29:32.108Z,59.21
2023-05-03T09:32:01.209Z,60.95
2023-05-03T09:34:28.834Z,60.70
2023-05-03T09:36:55.643Z,58.36
2023-05-03T09:39:22.292Z,61.11
2023-05-03T09:41:49.458Z,60.32
2023-05-03T09:44:17.325Z,59.77
2023-05-03T09:47:03.094Z,59.55
2023-05-03T09:49:32.163Z,59.79
2023-05-03T09:52:02.080Z,59.12
2023-05-03T09:54:31.609Z,57.22
2023-05-03T09:56:59.368Z,56.22
2023-05-03T09:59:26.225Z,57.04
2023-05-03T10:01:56.837Z,58.19
2023-05-03T10:04:25.950Z,58.22
2023-05-03T10:06:54.439Z,58.03
2023-05-03T10:09:33.014Z,56.77
2023-05-03T10:12:02.360Z,58.06
2023-05-03T10:14:29.133Z,56.64
2023-05-03T10:17:01.405Z,55.53
2023-05-03T10:19:33.930Z,56.21
2023-05-03T10:22:08.581Z,57.14
2023-05-03T10:24:36.748Z,54.51
2023-05-03T10:27:07.482Z,54.86
2023-05-03T10:29:54.921Z,56.94
2023-05-03T10:32:35.627Z,55.99
2023-05-03T10:35:29.572Z,53.24
2023-05-03T10:37:57.297Z,52.89
2023-05-03T10:40:24.056Z,53.42
2023-05-03T10:42:52.843Z,54.43
2023-05-03T10:45:24.916Z,53.31
2023-05-03T10:48:10.769Z,52.46
2023-05-03T10:50:40.026Z,52.33
2023-05-03T10:53:07.269Z,51.98
2023-05-03T10:55:34.419Z,52.41
2023-05-03T10:58:01.763Z,53.30
2023-05-03T11:00:37.379Z,51.27
2023-05-03T11:03:11.222Z,52.67
2023-05-03T11:05:39.321Z,52.06
2023-05-03T11:08:19.794Z,55.62
2023-05-03T11:10:48.483Z,55.21
2023-05-03T11:13:15.724Z,54.85
2023-05-03T11:15:42.856Z,54.52
2023-05-03T11:18:14.059Z,54.74
2023-05-03T11:20:40.994Z,57.42
2023-05-03T11:23:08.036Z,54.49
2023-05-03T11:25:34.930Z,52.54
2023-05-03T11:28:05.045Z,52.56
2023-05-03T11:30:35.212Z,53.97
2023-05-03T11:33:02.547Z,53.15
2023-05-03T11:35:30.360Z,54.62
2023-05-03T11:37:57.285Z,57.14
2023-05-03T11:40:24.276Z,54.64
2023-05-03T11:42:58.777Z,51.92
2023-05-03T11:45:33.274Z,53.50
2023-05-03T11:48:00.370Z,51.68
2023-05-03T11:50:43.505Z,54.34
2023-05-03T11:53:12.370Z,51.78
2023-05-03T11:55:42.083Z,50.20
2023-05-03T11:58:12.699Z,47.13
2023-05-03T12:00:40.415Z,48.83
2023-05-03T12:03:09.132Z,49.65
2023-05-03T12:05:36.224Z,49.85
2023-05-03T12:08:03.392Z,48.05
2023-05-03T12:10:35.684Z,48.37
2023-05-03T12:13:04.906Z,47.65
2023-05-03T12:15:34.430Z,46.91
2023-05-03T12:18:05.634Z,49.38
2023-05-03T12:23:04.680Z,49.57
2023-05-03T12:25:33.890Z,50.60
2023-05-03T12:30:34.247Z,49.35
2023-05-03T12:33:04.286Z,49.78
2023-05-03T12:35:34.249Z,47.71
2023-05-03T12:38:03.690Z,46.96
2023-05-03T12:40:33.374Z,47.80
2023-05-03T12:43:02.063Z,47.16
2023-05-03T12:45:33.801Z,49.91
2023-05-03T12:48:01.640Z,48.81
2023-05-03T12:50:31.300Z,49.63
2023-05-03T12:53:02.238Z,48.60
2023-05-03T12:55:35.176Z,44.62
2023-05-03T12:58:38.172Z,45.73
2023-05-03T13:03:22.580Z,45.42
2023-05-03T13:05:50.143Z,46.32
2023-05-03T13:08:21.482Z,44.98
2023-05-03T13:10:49.700Z,45.53
2023-05-03T13:13:17.504Z,47.88
2023-05-03T13:15:44.562Z,46.73
2023-05-03T13:18:11.359Z,46.76
2023-05-03T13:20:38.103Z,44.99
2023-05-03T13:23:04.990Z,45.79
2023-05-03T13:25:31.938Z,46.99
2023-05-03T13:28:02.028Z,46.46
2023-05-03T13:30:28.858Z,45.24
2023-05-03T13:32:55.648Z,45.40
2023-05-03T13:35:22.547Z,44.99
2023-05-03T13:37:49.331Z,43.81
2023-05-03T13:40:16.174Z,41.61
2023-05-03T13:42:42.880Z,41.32
2023-05-03T13:45:10.374Z,43.50
2023-05-03T13:47:59.981Z,44.06
2023-05-03T13:50:24.029Z,44.66
2023-05-03T13:52:50.793Z,42.27
2023-05-03T13:55:17.526Z,43.82
2023-05-03T13:57:44.737Z,40.34
2023-05-03T14:00:12.534Z,41.34
2023-05-03T14:02:39.333Z,40.34
2023-05-03T14:05:07.053Z,44.04
2023-05-03T14:07:34.014Z,44.45
2023-05-03T14:10:00.839Z,45.72
2023-05-03T14:12:28.027Z,44.16
2023-05-03T14:14:55.001Z,42.20
2023-05-03T14:17:22.901Z,41.31
2023-05-03T14:19:49.972Z,39.64
2023-05-03T14:22:16.641Z,42.31
2023-05-03T14:24:44.712Z,44.12
2023-05-03T14:27:11.540Z,44.20
2023-05-03T14:29:38.296Z,42.35
2023-05-03T14:32:05.854Z,43.68
2023-05-03T14:34:32.608Z,43.37
2023-05-03T14:36:59.330Z,42.89
2023-05-03T14:39:26.780Z,43.77
2023-05-03T14:41:56.274Z,41.83
2023-05-03T14:44:23.306Z,43.71
2023-05-03T14:46:50.113Z,43.74
2023-05-03T14:49:17.905Z,41.20
2023-05-03T14:51:44.789Z,41.48
2023-05-03T14:54:12.161Z,40.59
2023-05-03T14:56:38.816Z,41.73
2023-05-03T14:59:05.700Z,41.07
2023-05-03T15:01:32.497Z,42.13
2023-05-03T15:03:59.237Z,41.94
2023-05-03T15:06:28.859Z,40.81
2023-05-03T15:08:55.616Z,40.62
2023-05-03T15:11:22.300Z,39.81
2023-05-03T15:13:49.165Z,40.49
2023-05-03T15:16:16.136Z,41.57
2023-05-03T15:18:47.394Z,40.42
2023-05-03T15:21:19.475Z,40.48
2023-05-03T15:23:48.428Z,41.83
2023-05-03T15:26:15.630Z,41.68
2023-05-03T15:28:42.324Z,43.08
2023-05-03T15:31:09.200Z,40.07
2023-05-03T15:33:41.762Z,41.13
2023-05-03T15:36:09.609Z,40.94
2023-05-03T15:38:36.435Z,41.21
2023-05-03T15:41:03.329Z,41.98
2023-05-03T15:43:30.036Z,42.70
2023-05-03T15:45:56.751Z,41.61
2023-05-03T15:48:23.474Z,41.67
2023-05-03T15:50:50.379Z,41.32
2023-05-03T15:53:17.416Z,41.92
2023-05-03T15:55:44.143Z,42.35
2023-05-03T15:58:10.970Z,41.59
2023-05-03T16:00:38.537Z,41.92
2023-05-03T16:03:05.317Z,43.51
2023-05-03T16:05:35.796Z,44.62
2023-05-03T16:08:02.697Z,43.04
2023-05-03T16:10:29.867Z,42.91
2023-05-03T16:12:56.608Z,43.64
2023-05-03T16:15:23.618Z,43.34
2023-05-03T16:17:50.418Z,43.64
2023-05-03T16:20:17.181Z,43.79
2023-05-03T16:22:45.428Z,43.06
2023-05-03T16:25:12.940Z,43.30
2023-05-03T16:27:42.705Z,44.21
2023-05-03T16:30:09.873Z,42.98
2023-05-03T16:32:37.294Z,42.63
2023-05-03T16:35:04.456Z,43.06
2023-05-03T16:37:32.490Z,44.73
2023-05-03T16:40:00.065Z,44.07
2023-05-03T16:42:26.786Z,45.14
2023-05-03T16:44:53.539Z,46.37
2023-05-03T16:47:20.269Z,46.26
2023-05-03T16:49:46.983Z,46.15
2023-05-03T16:52:13.688Z,45.90
2023-05-03T16:54:40.474Z,45.96
2023-05-03T16:57:07.223Z,46.07
2023-05-03T16:59:34.244Z,45.89
2023-05-03T17:02:01.476Z,46.25
2023-05-03T17:04:28.556Z,47.54
2023-05-03T17:06:56.390Z,46.82
2023-05-03T17:09:23.064Z,47.25
2023-05-03T17:11:49.769Z,46.87
2023-05-03T17:14:16.584Z,47.77
2023-05-03T17:16:44.720Z,47.33
2023-05-03T17:19:11.491Z,48.23
2023-05-03T17:21:38.198Z,49.34
2023-05-03T17:24:05.247Z,48.91
2023-05-03T17:26:32.178Z,49.62
2023-05-03T17:28:58.868Z,49.96
2023-05-03T17:31:25.680Z,50.83
2023-05-03T17:33:52.409Z,50.13
2023-05-03T17:36:21.541Z,50.67
2023-05-03T17:38:48.952Z,51.07
2023-05-03T17:41:15.690Z,51.16
2023-05-03T17:43:43.030Z,51.37
2023-05-03T17:46:11.559Z,51.10
2023-05-03T17:48:40.189Z,51.65
2023-05-03T17:51:07.737Z,52.26
2023-05-03T17:53:34.824Z,52.51
2023-05-03T17:56:01.620Z,52.22
2023-05-03T17:58:28.547Z,52.31
2023-05-03T18:00:56.963Z,52.67
2023-05-03T18:03:24.209Z,53.44
2023-05-03T18:05:51.104Z,54.31
2023-05-03T18:08:17.895Z,53.57
2023-05-03T18:10:45.245Z,55.21
2023-05-03T18:13:13.152Z,55.11
2023-05-03T18:15:41.840Z,55.84
2023-05-03T18:18:09.182Z,55.76
2023-05-03T18:20:36.038Z,56.06
2023-05-03T18:23:02.959Z,56.20
2023-05-03T18:25:29.849Z,56.65
2023-05-03T18:27:57.528Z,56.82
2023-05-03T18:30:29.351Z,58.14
2023-05-03T18:32:56.708Z,57.25
2023-05-03T18:35:23.826Z,57.48
2023-05-03T18:37:50.837Z,58.62
2023-05-03T18:40:17.702Z,57.68
2023-05-03T18:42:44.854Z,57.22
2023-05-03T18:45:12.321Z,56.94
2023-05-03T18:47:39.031Z,57.96
2023-05-03T18:50:07.025Z,59.35
2023-05-03T18:52:33.974Z,59.68
2023-05-03T18:55:00.820Z,59.97
2023-05-03T18:57:27.587Z,60.18
2023-05-03T19:00:01.058Z,59.83
2023-05-03T19:02:30.954Z,59.95
2023-05-03T19:04:58.389Z,60.53
2023-05-03T19:07:25.259Z,60.97
2023-05-03T19:09:56.297Z,61.38
2023-05-03T19:12:23.293Z,61.86
2023-05-03T19:14:50.028Z,62.47
2023-05-03T19:17:17.573Z,62.02
2023-05-03T19:19:44.494Z,62.95
2023-05-03T19:22:11.213Z,63.92
2023-05-03T19:24:37.913Z,63.60
2023-05-03T19:27:04.921Z,63.10
2023-05-03T19:29:31.781Z,62.93
2023-05-03T19:31:58.484Z,63.55
2023-05-03T19:34:25.204Z,64.71
2023-05-03T19:36:51.934Z,65.04
2023-05-03T19:39:19.529Z,65.39
2023-05-03T19:41:47.636Z,65.83
2023-05-03T19:44:14.445Z,65.19
2023-05-03T19:46:41.393Z,65.29
2023-05-03T19:49:08.178Z,66.10
2023-05-03T19:51:35.097Z,65.72
2023-05-03T19:54:03.472Z,65.27
2023-05-03T19:56:30.303Z,66.13
2023-05-03T19:58:57.418Z,66.77
2023-05-03T20:01:24.361Z,67.20
2023-05-03T20:03:53.782Z,67.15
2023-05-03T20:06:22.426Z,67.14
2023-05-03T20:08:49.349Z,67.59
2023-05-03T20:11:16.115Z,67.39
2023-05-03T20:13:42.890Z,68.76
2023-05-03T20:16:10.092Z,68.50
2023-05-03T20:18:37.068Z,69.20
2023-05-03T20:21:04.023Z,68.76
2023-05-03T20:23:30.839Z,68.55
2023-05-03T20:25:57.576Z,68.15
2023-05-03T20:28:24.487Z,68.97
2023-05-03T20:30:51.468Z,69.06
2023-05-03T20:33:18.389Z,68.91
2023-05-03T20:35:45.175Z,69.50
2023-05-03T20:38:11.987Z,70.44
2023-05-03T20:40:38.763Z,70.79
2023-05-03T20:43:05.588Z,70.29
2023-05-03T20:45:32.420Z,70.28
2023-05-03T20:47:59.257Z,71.04
2023-05-03T20:50:26.002Z,71.05
2023-05-03T20:52:52.718Z,71.18
2023-05-03T20:55:19.442Z,70.59
2023-05-03T20:57:46.214Z,71.71
2023-05-03T21:00:13.578Z,70.75
2023-05-03T21:02:40.355Z,71.55
2023-05-03T21:05:07.396Z,71.82
2023-05-03T21:07:34.103Z,71.00
2023-05-03T21:10:00.797Z,72.40
2023-05-03T21:12:28.416Z,72.29
2023-05-03T21:14:55.146Z,72.33
2023-05-03T21:17:21.786Z,72.03
2023-05-03T21:19:48.491Z,73.47
2023-05-03T21:22:15.162Z,73.89
2023-05-03T21:24:41.925Z,73.79
2023-05-03T21:27:09.461Z,73.06
2023-05-03T21:29:36.122Z,73.36
2023-05-03T21:32:04.249Z,73.67
2023-05-03T21:34:31.038Z,74.89
2023-05-03T21:36:57.777Z,74.94
2023-05-03T21:39:24.578Z,73.94
2023-05-03T21:41:51.363Z,74.83
2023-05-03T21:44:18.798Z,74.02
2023-05-03T21:46:45.632Z,75.04
2023-05-03T21:49:12.388Z,74.37
2023-05-03T21:51:39.094Z,76.10
2023-05-03T21:54:06.150Z,75.23
2023-05-03T21:56:32.841Z,74.42
2023-05-03T21:58:59.850Z,74.98
2023-05-03T22:01:26.651Z,76.24
2023-05-03T22:03:53.527Z,75.28
2023-05-03T22:06:20.399Z,76.58
2023-05-03T22:08:47.986Z,76.21
2023-05-03T22:11:14.701Z,77.26
2023-05-03T22:13:54.575Z,76.88
2023-05-03T22:16:28.179Z,77.94
2023-05-03T22:18:54.974Z,78.57
2023-05-03T22:21:21.703Z,77.83
2023-05-03T22:23:48.513Z,77.81
2023-05-03T22:26:15.202Z,79.01
2023-05-03T22:28:41.930Z,78.78
2023-05-03T22:31:08.714Z,77.78
2023-05-03T22:33:35.839Z,77.60
2023-05-03T22:36:02.564Z,78.39
2023-05-03T22:38:29.260Z,78.04
2023-05-03T22:40:56.063Z,78.60
2023-05-03T22:43:22.852Z,78.31
2023-05-03T22:45:49.590Z,77.58
2023-05-03T22:48:16.347Z,78.98
2023-05-03T22:50:43.544Z,78.40
2023-05-03T22:53:10.239Z,79.31
2023-05-03T22:55:36.996Z,79.40
2023-05-03T22:58:03.717Z,78.96
2023-05-03T23:00:30.558Z,79.34
2023-05-03T23:02:57.374Z,80.40
2023-05-03T23:05:24.152Z,79.89
2023-05-03T23:07:51.049Z,79.98
2023-05-03T23:10:18.182Z,80.13
2023-05-03T23:12:45.186Z,80.75
2023-05-03T23:15:12.225Z,80.38
2023-05-03T23:17:39.280Z,79.91
2023-05-03T23:20:07.173Z,80.90
2023-05-03T23:22:34.118Z,80.68
2023-05-03T23:25:00.946Z,80.60
2023-05-03T23:27:27.714Z,81.18
2023-05-03T23:29:55.014Z,80.98
2023-05-03T23:32:22.223Z,81.67
2023-05-03T23:34:49.434Z,81.84
2023-05-03T23:37:16.138Z,81.59
2023-05-03T23:39:44.410Z,81.68
2023-05-03T23:42:12.491Z,82.37
2023-05-03T23:44:53.705Z,82.69
2023-05-03T23:47:21.368Z,82.98
2023-05-03T23:49:48.090Z,83.07
2023-05-03T23:52:17.169Z,82.92
2023-05-03T23:54:43.863Z,83.63
2023-05-03T23:57:10.718Z,83.30
2023-05-03T23:59:37.375Z,83.37
